sensor_id;sensor_type;location;lat;lon;timestamp;P1;durP1;ratioP1;P2;durP2;ratioP2
71671;SDS011;67659;45.554;11.812;2023-08-12T00:00:09;11.77;;;8.03;;
71671;SDS011;67659;45.554;11.812;2023-08-12T00:02:39;12.55;;;8.27;;
71671;SDS011;67659;45.554;11.812;2023-08-12T00:05:06;14.05;;;8.35;;
71671;SDS011;67659;45.554;11.812;2023-08-12T00:07:32;13.02;;;8.75;;
71671;SDS011;67659;45.554;11.812;2023-08-12T00:09:59;12.77;;;8.73;;
71671;SDS011;67659;45.554;11.812;2023-08-12T00:12:28;10.03;;;7.83;;
71671;SDS011;67659;45.554;11.812;2023-08-12T00:14:55;12.85;;;8.15;;
71671;SDS011;67659;45.554;11.812;2023-08-12T00:17:21;13.70;;;8.82;;
71671;SDS011;67659;45.554;11.812;2023-08-12T00:19:47;12.18;;;8.57;;
71671;SDS011;67659;45.554;11.812;2023-08-12T00:22:13;12.13;;;9.17;;
71671;SDS011;67659;45.554;11.812;2023-08-12T00:24:39;13.55;;;8.85;;
71671;SDS011;67659;45.554;11.812;2023-08-12T00:27:05;13.32;;;8.55;;
71671;SDS011;67659;45.554;11.812;2023-08-12T00:29:32;12.45;;;8.18;;
71671;SDS011;67659;45.554;11.812;2023-08-12T00:31:58;13.60;;;8.05;;
71671;SDS011;67659;45.554;11.812;2023-08-12T00:34:24;11.63;;;8.00;;
71671;SDS011;67659;45.554;11.812;2023-08-12T00:36:50;12.63;;;8.43;;
71671;SDS011;67659;45.554;11.812;2023-08-12T00:39:16;11.17;;;8.57;;
71671;SDS011;67659;45.554;11.812;2023-08-12T00:41:42;12.38;;;8.43;;
71671;SDS011;67659;45.554;11.812;2023-08-12T00:44:08;11.68;;;8.15;;
71671;SDS011;67659;45.554;11.812;2023-08-12T00:46:35;11.20;;;8.15;;
71671;SDS011;67659;45.554;11.812;2023-08-12T00:49:03;11.40;;;8.40;;
71671;SDS011;67659;45.554;11.812;2023-08-12T00:51:30;11.40;;;8.27;;
71671;SDS011;67659;45.554;11.812;2023-08-12T00:53:57;9.93;;;7.47;;
71671;SDS011;67659;45.554;11.812;2023-08-12T00:56:25;11.90;;;7.88;;
71671;SDS011;67659;45.554;11.812;2023-08-12T00:58:52;11.57;;;7.75;;
71671;SDS011;67659;45.554;11.812;2023-08-12T01:01:19;13.20;;;8.40;;
71671;SDS011;67659;45.554;11.812;2023-08-12T01:03:46;11.77;;;7.63;;
71671;SDS011;67659;45.554;11.812;2023-08-12T01:06:12;12.88;;;7.85;;
71671;SDS011;67659;45.554;11.812;2023-08-12T01:08:38;10.43;;;7.28;;
71671;SDS011;67659;45.554;11.812;2023-08-12T01:16:13;12.90;;;9.00;;
71671;SDS011;67659;45.554;11.812;2023-08-12T01:18:41;15.00;;;10.80;;
71671;SDS011;67659;45.554;11.812;2023-08-12T01:21:08;17.08;;;11.82;;
71671;SDS011;67659;45.554;11.812;2023-08-12T01:23:38;13.85;;;10.80;;
71671;SDS011;67659;45.554;11.812;2023-08-12T01:26:04;15.68;;;12.77;;
71671;SDS011;67659;45.554;11.812;2023-08-12T01:28:30;16.97;;;13.40;;
71671;SDS011;67659;45.554;11.812;2023-08-12T01:30:57;14.98;;;11.80;;
71671;SDS011;67659;45.554;11.812;2023-08-12T01:36:22;19.52;;;14.93;;
71671;SDS011;67659;45.554;11.812;2023-08-12T01:38:51;21.67;;;16.33;;
71671;SDS011;67659;45.554;11.812;2023-08-12T01:41:21;21.00;;;16.40;;
71671;SDS011;67659;45.554;11.812;2023-08-12T01:43:52;20.85;;;16.85;;
71671;SDS011;67659;45.554;11.812;2023-08-12T01:46:18;18.30;;;15.05;;
71671;SDS011;67659;45.554;11.812;2023-08-12T01:48:44;16.33;;;13.27;;
71671;SDS011;67659;45.554;11.812;2023-08-12T01:51:09;15.13;;;11.33;;
71671;SDS011;67659;45.554;11.812;2023-08-12T01:53:36;15.60;;;11.68;;
71671;SDS011;67659;45.554;11.812;2023-08-12T01:56:02;18.10;;;14.33;;
71671;SDS011;67659;45.554;11.812;2023-08-12T01:58:27;21.00;;;16.08;;
71671;SDS011;67659;45.554;11.812;2023-08-12T02:00:53;17.45;;;14.65;;
71671;SDS011;67659;45.554;11.812;2023-08-12T02:03:19;21.13;;;16.67;;
71671;SDS011;67659;45.554;11.812;2023-08-12T02:05:45;17.38;;;15.13;;
71671;SDS011;67659;45.554;11.812;2023-08-12T02:08:11;19.33;;;15.70;;
71671;SDS011;67659;45.554;11.812;2023-08-12T02:10:38;20.43;;;15.47;;
71671;SDS011;67659;45.554;11.812;2023-08-12T02:13:03;21.45;;;16.85;;
71671;SDS011;67659;45.554;11.812;2023-08-12T02:15:30;15.95;;;13.20;;
71671;SDS011;67659;45.554;11.812;2023-08-12T02:17:58;22.53;;;15.13;;
71671;SDS011;67659;45.554;11.812;2023-08-12T02:20:40;22.40;;;17.73;;
71671;SDS011;67659;45.554;11.812;2023-08-12T02:23:14;18.50;;;15.90;;
71671;SDS011;67659;45.554;11.812;2023-08-12T02:25:40;18.03;;;15.70;;
71671;SDS011;67659;45.554;11.812;2023-08-12T02:28:06;16.93;;;14.43;;
71671;SDS011;67659;45.554;11.812;2023-08-12T02:30:32;18.10;;;13.57;;
71671;SDS011;67659;45.554;11.812;2023-08-12T02:32:58;19.55;;;15.95;;
71671;SDS011;67659;45.554;11.812;2023-08-12T02:35:24;18.33;;;15.50;;
71671;SDS011;67659;45.554;11.812;2023-08-12T02:37:49;20.38;;;15.43;;
71671;SDS011;67659;45.554;11.812;2023-08-12T02:40:15;18.90;;;14.73;;
71671;SDS011;67659;45.554;11.812;2023-08-12T02:42:41;18.55;;;14.45;;
71671;SDS011;67659;45.554;11.812;2023-08-12T02:45:07;17.50;;;14.48;;
71671;SDS011;67659;45.554;11.812;2023-08-12T02:47:33;16.67;;;13.93;;
71671;SDS011;67659;45.554;11.812;2023-08-12T02:49:59;20.42;;;14.95;;
71671;SDS011;67659;45.554;11.812;2023-08-12T02:52:24;20.38;;;15.20;;
71671;SDS011;67659;45.554;11.812;2023-08-12T02:54:50;20.10;;;15.57;;
71671;SDS011;67659;45.554;11.812;2023-08-12T02:57:16;18.77;;;15.85;;
71671;SDS011;67659;45.554;11.812;2023-08-12T02:59:42;18.40;;;14.43;;
71671;SDS011;67659;45.554;11.812;2023-08-12T03:02:08;20.13;;;14.13;;
71671;SDS011;67659;45.554;11.812;2023-08-12T03:04:33;17.17;;;14.45;;
71671;SDS011;67659;45.554;11.812;2023-08-12T03:06:59;19.63;;;15.00;;
71671;SDS011;67659;45.554;11.812;2023-08-12T03:09:25;17.33;;;14.52;;
71671;SDS011;67659;45.554;11.812;2023-08-12T03:11:51;17.33;;;14.37;;
71671;SDS011;67659;45.554;11.812;2023-08-12T03:14:16;17.43;;;14.53;;
71671;SDS011;67659;45.554;11.812;2023-08-12T03:16:42;18.98;;;15.27;;
71671;SDS011;67659;45.554;11.812;2023-08-12T03:19:08;23.07;;;16.50;;
71671;SDS011;67659;45.554;11.812;2023-08-12T03:21:34;20.45;;;16.75;;
71671;SDS011;67659;45.554;11.812;2023-08-12T03:24:00;20.23;;;16.20;;
71671;SDS011;67659;45.554;11.812;2023-08-12T03:26:25;20.77;;;16.00;;
71671;SDS011;67659;45.554;11.812;2023-08-12T03:28:51;21.15;;;15.25;;
71671;SDS011;67659;45.554;11.812;2023-08-12T03:31:17;18.38;;;13.40;;
71671;SDS011;67659;45.554;11.812;2023-08-12T03:33:43;18.50;;;14.43;;
71671;SDS011;67659;45.554;11.812;2023-08-12T03:36:09;17.75;;;14.80;;
71671;SDS011;67659;45.554;11.812;2023-08-12T03:38:34;18.70;;;15.57;;
71671;SDS011;67659;45.554;11.812;2023-08-12T03:41:01;21.60;;;17.02;;
71671;SDS011;67659;45.554;11.812;2023-08-12T03:43:31;18.50;;;15.15;;
71671;SDS011;67659;45.554;11.812;2023-08-12T03:45:58;16.48;;;13.50;;
71671;SDS011;67659;45.554;11.812;2023-08-12T03:48:24;17.15;;;13.50;;
71671;SDS011;67659;45.554;11.812;2023-08-12T03:50:50;15.57;;;13.07;;
71671;SDS011;67659;45.554;11.812;2023-08-12T03:53:16;20.42;;;17.42;;
71671;SDS011;67659;45.554;11.812;2023-08-12T03:55:42;22.63;;;18.25;;
71671;SDS011;67659;45.554;11.812;2023-08-12T03:58:08;20.50;;;17.05;;
71671;SDS011;67659;45.554;11.812;2023-08-12T04:00:34;19.63;;;16.87;;
71671;SDS011;67659;45.554;11.812;2023-08-12T04:03:00;23.73;;;17.10;;
71671;SDS011;67659;45.554;11.812;2023-08-12T04:05:26;23.67;;;16.57;;
71671;SDS011;67659;45.554;11.812;2023-08-12T04:07:51;21.42;;;16.60;;
71671;SDS011;67659;45.554;11.812;2023-08-12T04:10:17;21.23;;;14.35;;
71671;SDS011;67659;45.554;11.812;2023-08-12T04:12:43;15.87;;;12.87;;
71671;SDS011;67659;45.554;11.812;2023-08-12T04:15:09;16.40;;;13.82;;
71671;SDS011;67659;45.554;11.812;2023-08-12T04:17:36;23.98;;;18.85;;
71671;SDS011;67659;45.554;11.812;2023-08-12T04:20:01;22.83;;;19.23;;
71671;SDS011;67659;45.554;11.812;2023-08-12T04:22:30;23.30;;;18.17;;
71671;SDS011;67659;45.554;11.812;2023-08-12T04:24:56;24.63;;;20.77;;
71671;SDS011;67659;45.554;11.812;2023-08-12T04:27:22;21.00;;;17.20;;
71671;SDS011;67659;45.554;11.812;2023-08-12T04:29:48;24.25;;;18.05;;
71671;SDS011;67659;45.554;11.812;2023-08-12T04:32:13;22.85;;;19.35;;
71671;SDS011;67659;45.554;11.812;2023-08-12T04:34:40;20.07;;;16.67;;
71671;SDS011;67659;45.554;11.812;2023-08-12T04:37:06;19.17;;;15.15;;
71671;SDS011;67659;45.554;11.812;2023-08-12T04:39:32;21.10;;;17.23;;
71671;SDS011;67659;45.554;11.812;2023-08-12T04:41:58;18.23;;;15.10;;
71671;SDS011;67659;45.554;11.812;2023-08-12T04:44:24;17.05;;;13.23;;
71671;SDS011;67659;45.554;11.812;2023-08-12T04:46:50;19.02;;;14.02;;
71671;SDS011;67659;45.554;11.812;2023-08-12T04:49:16;17.67;;;15.18;;
71671;SDS011;67659;45.554;11.812;2023-08-12T04:51:41;18.50;;;16.20;;
71671;SDS011;67659;45.554;11.812;2023-08-12T04:54:07;18.07;;;15.83;;
71671;SDS011;67659;45.554;11.812;2023-08-12T04:56:33;18.70;;;15.73;;
71671;SDS011;67659;45.554;11.812;2023-08-12T04:58:59;21.15;;;15.75;;
71671;SDS011;67659;45.554;11.812;2023-08-12T05:01:25;18.63;;;15.20;;
71671;SDS011;67659;45.554;11.812;2023-08-12T05:03:50;17.50;;;15.60;;
71671;SDS011;67659;45.554;11.812;2023-08-12T05:06:16;18.17;;;15.90;;
71671;SDS011;67659;45.554;11.812;2023-08-12T05:08:42;18.67;;;16.17;;
71671;SDS011;67659;45.554;11.812;2023-08-12T05:11:08;23.00;;;16.97;;
71671;SDS011;67659;45.554;11.812;2023-08-12T05:13:34;21.02;;;17.40;;
71671;SDS011;67659;45.554;11.812;2023-08-12T05:15:59;19.05;;;16.50;;
71671;SDS011;67659;45.554;11.812;2023-08-12T05:18:25;22.67;;;17.53;;
71671;SDS011;67659;45.554;11.812;2023-08-12T05:20:53;21.95;;;18.17;;
71671;SDS011;67659;45.554;11.812;2023-08-12T05:23:22;22.60;;;17.73;;
71671;SDS011;67659;45.554;11.812;2023-08-12T05:25:48;21.53;;;17.93;;
71671;SDS011;67659;45.554;11.812;2023-08-12T05:28:14;21.83;;;17.85;;
71671;SDS011;67659;45.554;11.812;2023-08-12T05:30:40;20.17;;;17.02;;
71671;SDS011;67659;45.554;11.812;2023-08-12T05:33:05;21.47;;;17.93;;
71671;SDS011;67659;45.554;11.812;2023-08-12T05:35:35;22.60;;;18.80;;
71671;SDS011;67659;45.554;11.812;2023-08-12T05:38:01;22.80;;;19.63;;
71671;SDS011;67659;45.554;11.812;2023-08-12T05:40:27;20.85;;;17.95;;
71671;SDS011;67659;45.554;11.812;2023-08-12T05:42:53;23.20;;;18.50;;
71671;SDS011;67659;45.554;11.812;2023-08-12T05:45:19;21.92;;;18.33;;
71671;SDS011;67659;45.554;11.812;2023-08-12T05:47:45;22.88;;;19.30;;
71671;SDS011;67659;45.554;11.812;2023-08-12T05:50:10;29.30;;;17.40;;
71671;SDS011;67659;45.554;11.812;2023-08-12T05:52:36;20.10;;;15.70;;
71671;SDS011;67659;45.554;11.812;2023-08-12T05:55:02;23.75;;;15.82;;
71671;SDS011;67659;45.554;11.812;2023-08-12T05:57:28;16.02;;;12.95;;
71671;SDS011;67659;45.554;11.812;2023-08-12T05:59:54;14.33;;;11.50;;
71671;SDS011;67659;45.554;11.812;2023-08-12T06:02:20;15.35;;;12.02;;
71671;SDS011;67659;45.554;11.812;2023-08-12T06:04:46;17.00;;;11.85;;
71671;SDS011;67659;45.554;11.812;2023-08-12T06:07:12;15.00;;;12.27;;
71671;SDS011;67659;45.554;11.812;2023-08-12T06:09:38;18.00;;;12.80;;
71671;SDS011;67659;45.554;11.812;2023-08-12T06:12:05;15.13;;;12.32;;
71671;SDS011;67659;45.554;11.812;2023-08-12T06:14:31;15.10;;;12.68;;
71671;SDS011;67659;45.554;11.812;2023-08-12T06:16:57;18.87;;;12.30;;
71671;SDS011;67659;45.554;11.812;2023-08-12T06:19:23;15.35;;;12.23;;
71671;SDS011;67659;45.554;11.812;2023-08-12T06:21:49;16.43;;;12.80;;
71671;SDS011;67659;45.554;11.812;2023-08-12T06:24:15;13.87;;;11.53;;
71671;SDS011;67659;45.554;11.812;2023-08-12T06:26:41;14.02;;;10.80;;
71671;SDS011;67659;45.554;11.812;2023-08-12T06:29:06;15.07;;;11.20;;
71671;SDS011;67659;45.554;11.812;2023-08-12T06:31:32;13.90;;;10.63;;
71671;SDS011;67659;45.554;11.812;2023-08-12T06:33:58;16.48;;;10.82;;
71671;SDS011;67659;45.554;11.812;2023-08-12T06:36:24;13.17;;;10.63;;
71671;SDS011;67659;45.554;11.812;2023-08-12T06:38:50;13.77;;;10.50;;
71671;SDS011;67659;45.554;11.812;2023-08-12T06:41:16;13.90;;;10.65;;
71671;SDS011;67659;45.554;11.812;2023-08-12T06:43:42;13.55;;;10.82;;
71671;SDS011;67659;45.554;11.812;2023-08-12T06:46:08;16.03;;;11.20;;
71671;SDS011;67659;45.554;11.812;2023-08-12T06:48:33;15.20;;;10.40;;
71671;SDS011;67659;45.554;11.812;2023-08-12T06:50:59;15.35;;;10.60;;
71671;SDS011;67659;45.554;11.812;2023-08-12T06:53:29;12.60;;;10.00;;
71671;SDS011;67659;45.554;11.812;2023-08-12T06:55:55;14.43;;;9.68;;
71671;SDS011;67659;45.554;11.812;2023-08-12T06:58:21;13.02;;;10.07;;
71671;SDS011;67659;45.554;11.812;2023-08-12T07:00:47;13.45;;;10.40;;
71671;SDS011;67659;45.554;11.812;2023-08-12T07:03:12;14.10;;;10.13;;
71671;SDS011;67659;45.554;11.812;2023-08-12T07:05:38;13.07;;;10.27;;
71671;SDS011;67659;45.554;11.812;2023-08-12T07:08:04;11.60;;;9.27;;
71671;SDS011;67659;45.554;11.812;2023-08-12T07:10:30;12.47;;;10.30;;
71671;SDS011;67659;45.554;11.812;2023-08-12T07:12:56;12.50;;;10.40;;
71671;SDS011;67659;45.554;11.812;2023-08-12T07:15:22;13.45;;;9.98;;
71671;SDS011;67659;45.554;11.812;2023-08-12T07:17:48;13.53;;;10.67;;
71671;SDS011;67659;45.554;11.812;2023-08-12T07:20:14;13.32;;;10.05;;
71671;SDS011;67659;45.554;11.812;2023-08-12T07:22:40;14.93;;;10.52;;
71671;SDS011;67659;45.554;11.812;2023-08-12T07:25:06;13.33;;;10.07;;
71671;SDS011;67659;45.554;11.812;2023-08-12T07:27:32;15.68;;;9.48;;
71671;SDS011;67659;45.554;11.812;2023-08-12T07:29:58;12.85;;;9.98;;
71671;SDS011;67659;45.554;11.812;2023-08-12T07:32:24;12.30;;;9.20;;
71671;SDS011;67659;45.554;11.812;2023-08-12T07:34:50;12.03;;;9.20;;
71671;SDS011;67659;45.554;11.812;2023-08-12T07:37:16;13.35;;;9.98;;
71671;SDS011;67659;45.554;11.812;2023-08-12T07:39:42;11.77;;;9.00;;
71671;SDS011;67659;45.554;11.812;2023-08-12T07:42:08;13.37;;;8.87;;
71671;SDS011;67659;45.554;11.812;2023-08-12T07:44:33;11.57;;;8.75;;
71671;SDS011;67659;45.554;11.812;2023-08-12T07:46:59;12.02;;;8.35;;
71671;SDS011;67659;45.554;11.812;2023-08-12T07:49:25;12.27;;;8.37;;
71671;SDS011;67659;45.554;11.812;2023-08-12T07:51:51;12.07;;;7.80;;
71671;SDS011;67659;45.554;11.812;2023-08-12T07:54:17;11.05;;;7.60;;
71671;SDS011;67659;45.554;11.812;2023-08-12T07:56:43;13.47;;;8.30;;
71671;SDS011;67659;45.554;11.812;2023-08-12T07:59:09;10.55;;;7.95;;
71671;SDS011;67659;45.554;11.812;2023-08-12T08:01:35;10.10;;;8.05;;
71671;SDS011;67659;45.554;11.812;2023-08-12T08:04:01;11.27;;;8.20;;
71671;SDS011;67659;45.554;11.812;2023-08-12T08:06:27;9.60;;;6.47;;
71671;SDS011;67659;45.554;11.812;2023-08-12T08:08:53;12.07;;;8.30;;
71671;SDS011;67659;45.554;11.812;2023-08-12T08:11:20;10.65;;;7.57;;
71671;SDS011;67659;45.554;11.812;2023-08-12T08:13:46;11.60;;;8.45;;
71671;SDS011;67659;45.554;11.812;2023-08-12T08:16:12;10.87;;;7.10;;
71671;SDS011;67659;45.554;11.812;2023-08-12T08:18:38;9.90;;;6.65;;
71671;SDS011;67659;45.554;11.812;2023-08-12T08:21:04;9.43;;;6.70;;
71671;SDS011;67659;45.554;11.812;2023-08-12T08:23:29;8.33;;;6.10;;
71671;SDS011;67659;45.554;11.812;2023-08-12T08:25:55;9.82;;;6.50;;
71671;SDS011;67659;45.554;11.812;2023-08-12T08:28:21;6.88;;;4.50;;
71671;SDS011;67659;45.554;11.812;2023-08-12T08:30:48;8.37;;;5.50;;
71671;SDS011;67659;45.554;11.812;2023-08-12T08:33:14;8.48;;;5.40;;
71671;SDS011;67659;45.554;11.812;2023-08-12T08:35:40;9.52;;;6.63;;
71671;SDS011;67659;45.554;11.812;2023-08-12T08:38:06;10.23;;;6.37;;
71671;SDS011;67659;45.554;11.812;2023-08-12T08:40:31;10.68;;;5.53;;
71671;SDS011;67659;45.554;11.812;2023-08-12T08:42:59;9.75;;;6.25;;
71671;SDS011;67659;45.554;11.812;2023-08-12T08:45:30;10.33;;;5.80;;
71671;SDS011;67659;45.554;11.812;2023-08-12T08:47:59;9.82;;;5.68;;
71671;SDS011;67659;45.554;11.812;2023-08-12T08:50:27;9.38;;;6.35;;
71671;SDS011;67659;45.554;11.812;2023-08-12T08:52:55;9.48;;;5.20;;
71671;SDS011;67659;45.554;11.812;2023-08-12T08:55:22;10.07;;;6.32;;
71671;SDS011;67659;45.554;11.812;2023-08-12T08:57:48;10.00;;;5.80;;
71671;SDS011;67659;45.554;11.812;2023-08-12T09:00:16;8.15;;;5.50;;
71671;SDS011;67659;45.554;11.812;2023-08-12T09:02:43;10.07;;;5.90;;
71671;SDS011;67659;45.554;11.812;2023-08-12T09:05:11;8.77;;;5.93;;
71671;SDS011;67659;45.554;11.812;2023-08-12T09:07:39;11.25;;;5.75;;
71671;SDS011;67659;45.554;11.812;2023-08-12T09:10:07;9.93;;;5.53;;
71671;SDS011;67659;45.554;11.812;2023-08-12T09:12:33;8.15;;;4.68;;
71671;SDS011;67659;45.554;11.812;2023-08-12T09:14:59;8.40;;;4.70;;
71671;SDS011;67659;45.554;11.812;2023-08-12T09:17:25;9.85;;;5.60;;
71671;SDS011;67659;45.554;11.812;2023-08-12T09:19:51;8.57;;;5.10;;
71671;SDS011;67659;45.554;11.812;2023-08-12T09:22:17;8.00;;;5.00;;
71671;SDS011;67659;45.554;11.812;2023-08-12T09:24:43;6.80;;;4.30;;
71671;SDS011;67659;45.554;11.812;2023-08-12T09:27:09;8.30;;;4.85;;
71671;SDS011;67659;45.554;11.812;2023-08-12T09:29:35;9.07;;;4.80;;
71671;SDS011;67659;45.554;11.812;2023-08-12T09:32:11;7.35;;;4.70;;
71671;SDS011;67659;45.554;11.812;2023-08-12T09:34:44;7.20;;;4.32;;
71671;SDS011;67659;45.554;11.812;2023-08-12T09:37:13;7.38;;;4.28;;
71671;SDS011;67659;45.554;11.812;2023-08-12T09:39:39;6.40;;;4.22;;
71671;SDS011;67659;45.554;11.812;2023-08-12T09:42:05;7.30;;;4.20;;
71671;SDS011;67659;45.554;11.812;2023-08-12T09:44:34;8.98;;;4.32;;
71671;SDS011;67659;45.554;11.812;2023-08-12T09:47:01;9.82;;;4.40;;
71671;SDS011;67659;45.554;11.812;2023-08-12T09:49:26;7.03;;;4.20;;
71671;SDS011;67659;45.554;11.812;2023-08-12T09:51:53;8.70;;;5.00;;
71671;SDS011;67659;45.554;11.812;2023-08-12T09:54:19;6.80;;;4.55;;
71671;SDS011;67659;45.554;11.812;2023-08-12T09:56:47;9.50;;;4.30;;
71671;SDS011;67659;45.554;11.812;2023-08-12T09:59:15;7.28;;;4.43;;
71671;SDS011;67659;45.554;11.812;2023-08-12T10:01:48;7.90;;;4.20;;
71671;SDS011;67659;45.554;11.812;2023-08-12T10:04:17;8.90;;;4.25;;
71671;SDS011;67659;45.554;11.812;2023-08-12T10:06:45;9.25;;;4.70;;
71671;SDS011;67659;45.554;11.812;2023-08-12T10:09:13;9.88;;;4.50;;
71671;SDS011;67659;45.554;11.812;2023-08-12T10:11:41;7.88;;;5.13;;
71671;SDS011;67659;45.554;11.812;2023-08-12T10:14:09;7.10;;;4.53;;
71671;SDS011;67659;45.554;11.812;2023-08-12T10:16:35;8.30;;;4.80;;
71671;SDS011;67659;45.554;11.812;2023-08-12T10:19:02;7.25;;;4.40;;
71671;SDS011;67659;45.554;11.812;2023-08-12T10:21:30;6.18;;;4.03;;
71671;SDS011;67659;45.554;11.812;2023-08-12T10:23:59;7.80;;;4.55;;
71671;SDS011;67659;45.554;11.812;2023-08-12T10:26:28;7.47;;;4.30;;
71671;SDS011;67659;45.554;11.812;2023-08-12T10:28:55;7.35;;;3.88;;
71671;SDS011;67659;45.554;11.812;2023-08-12T10:31:22;7.72;;;4.40;;
71671;SDS011;67659;45.554;11.812;2023-08-12T10:33:51;6.60;;;4.10;;
71671;SDS011;67659;45.554;11.812;2023-08-12T10:36:17;7.72;;;4.60;;
71671;SDS011;67659;45.554;11.812;2023-08-12T10:38:44;8.03;;;4.33;;
71671;SDS011;67659;45.554;11.812;2023-08-12T10:41:16;7.47;;;4.30;;
71671;SDS011;67659;45.554;11.812;2023-08-12T10:43:56;6.75;;;4.53;;
71671;SDS011;67659;45.554;11.812;2023-08-12T10:46:32;8.63;;;4.25;;
71671;SDS011;67659;45.554;11.812;2023-08-12T10:51:50;6.27;;;3.90;;
71671;SDS011;67659;45.554;11.812;2023-08-12T10:54:21;8.32;;;4.40;;
71671;SDS011;67659;45.554;11.812;2023-08-12T11:07:45;8.73;;;4.03;;
71671;SDS011;67659;45.554;11.812;2023-08-12T11:10:22;6.53;;;4.50;;
71671;SDS011;67659;45.554;11.812;2023-08-12T11:15:16;7.50;;;4.27;;
71671;SDS011;67659;45.554;11.812;2023-08-12T11:17:53;7.82;;;4.43;;
71671;SDS011;67659;45.554;11.812;2023-08-12T11:20:20;8.60;;;4.50;;
71671;SDS011;67659;45.554;11.812;2023-08-12T11:22:46;8.93;;;4.63;;
71671;SDS011;67659;45.554;11.812;2023-08-12T11:25:13;8.10;;;4.55;;
71671;SDS011;67659;45.554;11.812;2023-08-12T11:27:40;7.50;;;4.67;;
71671;SDS011;67659;45.554;11.812;2023-08-12T11:30:08;9.02;;;4.63;;
71671;SDS011;67659;45.554;11.812;2023-08-12T11:32:35;7.97;;;4.50;;
71671;SDS011;67659;45.554;11.812;2023-08-12T11:35:03;8.75;;;4.38;;
71671;SDS011;67659;45.554;11.812;2023-08-12T11:37:31;7.72;;;4.35;;
71671;SDS011;67659;45.554;11.812;2023-08-12T11:39:57;7.63;;;4.23;;
71671;SDS011;67659;45.554;11.812;2023-08-12T11:42:23;6.40;;;4.45;;
71671;SDS011;67659;45.554;11.812;2023-08-12T11:44:49;7.88;;;4.78;;
71671;SDS011;67659;45.554;11.812;2023-08-12T11:47:15;6.70;;;4.30;;
71671;SDS011;67659;45.554;11.812;2023-08-12T11:49:41;7.07;;;4.53;;
71671;SDS011;67659;45.554;11.812;2023-08-12T11:52:08;7.45;;;4.22;;
71671;SDS011;67659;45.554;11.812;2023-08-12T11:54:36;6.47;;;4.75;;
71671;SDS011;67659;45.554;11.812;2023-08-12T11:57:02;6.60;;;4.63;;
71671;SDS011;67659;45.554;11.812;2023-08-12T11:59:28;6.72;;;4.30;;
71671;SDS011;67659;45.554;11.812;2023-08-12T12:01:55;7.60;;;4.25;;
71671;SDS011;67659;45.554;11.812;2023-08-12T12:04:21;8.32;;;4.30;;
71671;SDS011;67659;45.554;11.812;2023-08-12T12:06:47;7.47;;;4.40;;
71671;SDS011;67659;45.554;11.812;2023-08-12T12:09:13;7.57;;;4.10;;
71671;SDS011;67659;45.554;11.812;2023-08-12T12:11:39;6.95;;;4.30;;
71671;SDS011;67659;45.554;11.812;2023-08-12T12:14:07;6.72;;;4.20;;
71671;SDS011;67659;45.554;11.812;2023-08-12T12:19:17;7.53;;;4.77;;
71671;SDS011;67659;45.554;11.812;2023-08-12T12:21:45;7.45;;;4.82;;
71671;SDS011;67659;45.554;11.812;2023-08-12T12:24:12;7.53;;;4.47;;
71671;SDS011;67659;45.554;11.812;2023-08-12T12:26:38;10.60;;;4.80;;
71671;SDS011;67659;45.554;11.812;2023-08-12T12:29:04;8.13;;;5.40;;
71671;SDS011;67659;45.554;11.812;2023-08-12T12:31:35;7.17;;;4.40;;
71671;SDS011;67659;45.554;11.812;2023-08-12T12:34:01;7.05;;;4.80;;
71671;SDS011;67659;45.554;11.812;2023-08-12T12:36:31;8.00;;;4.90;;
71671;SDS011;67659;45.554;11.812;2023-08-12T12:39:01;8.57;;;4.97;;
71671;SDS011;67659;45.554;11.812;2023-08-12T12:41:30;10.23;;;4.80;;
71671;SDS011;67659;45.554;11.812;2023-08-12T12:43:57;7.80;;;4.53;;
71671;SDS011;67659;45.554;11.812;2023-08-12T12:46:25;7.07;;;4.65;;
71671;SDS011;67659;45.554;11.812;2023-08-12T12:48:51;8.15;;;5.05;;
71671;SDS011;67659;45.554;11.812;2023-08-12T12:51:17;7.30;;;4.60;;
71671;SDS011;67659;45.554;11.812;2023-08-12T12:53:43;6.53;;;4.50;;
71671;SDS011;67659;45.554;11.812;2023-08-12T12:56:09;9.80;;;4.78;;
71671;SDS011;67659;45.554;11.812;2023-08-12T12:58:35;7.27;;;4.90;;
71671;SDS011;67659;45.554;11.812;2023-08-12T13:01:02;6.60;;;4.63;;
71671;SDS011;67659;45.554;11.812;2023-08-12T13:03:30;6.93;;;4.70;;
71671;SDS011;67659;45.554;11.812;2023-08-12T13:05:56;8.50;;;4.57;;
71671;SDS011;67659;45.554;11.812;2023-08-12T13:08:22;7.37;;;5.13;;
71671;SDS011;67659;45.554;11.812;2023-08-12T13:10:48;7.40;;;4.80;;
71671;SDS011;67659;45.554;11.812;2023-08-12T13:13:15;7.75;;;4.90;;
71671;SDS011;67659;45.554;11.812;2023-08-12T13:15:41;8.10;;;4.72;;
71671;SDS011;67659;45.554;11.812;2023-08-12T13:18:08;7.80;;;4.63;;
71671;SDS011;67659;45.554;11.812;2023-08-12T13:20:34;8.77;;;4.70;;
71671;SDS011;67659;45.554;11.812;2023-08-12T13:23:00;7.68;;;5.20;;
71671;SDS011;67659;45.554;11.812;2023-08-12T13:25:30;8.57;;;4.63;;
71671;SDS011;67659;45.554;11.812;2023-08-12T13:27:58;7.10;;;5.15;;
71671;SDS011;67659;45.554;11.812;2023-08-12T13:30:28;7.77;;;4.90;;
71671;SDS011;67659;45.554;11.812;2023-08-12T13:32:55;7.47;;;5.10;;
71671;SDS011;67659;45.554;11.812;2023-08-12T13:35:21;6.72;;;4.97;;
71671;SDS011;67659;45.554;11.812;2023-08-12T13:37:48;9.27;;;5.10;;
71671;SDS011;67659;45.554;11.812;2023-08-12T13:40:15;8.15;;;5.00;;
71671;SDS011;67659;45.554;11.812;2023-08-12T13:42:41;8.87;;;5.07;;
71671;SDS011;67659;45.554;11.812;2023-08-12T13:45:07;8.70;;;5.15;;
71671;SDS011;67659;45.554;11.812;2023-08-12T13:47:35;7.57;;;5.70;;
71671;SDS011;67659;45.554;11.812;2023-08-12T13:50:01;8.50;;;5.45;;
71671;SDS011;67659;45.554;11.812;2023-08-12T13:52:27;8.87;;;5.30;;
71671;SDS011;67659;45.554;11.812;2023-08-12T13:54:53;7.63;;;5.25;;
71671;SDS011;67659;45.554;11.812;2023-08-12T13:57:19;9.45;;;5.90;;
71671;SDS011;67659;45.554;11.812;2023-08-12T13:59:45;7.43;;;5.23;;
71671;SDS011;67659;45.554;11.812;2023-08-12T14:02:12;9.35;;;5.13;;
71671;SDS011;67659;45.554;11.812;2023-08-12T14:04:38;8.90;;;5.00;;
71671;SDS011;67659;45.554;11.812;2023-08-12T14:07:04;6.97;;;5.05;;
71671;SDS011;67659;45.554;11.812;2023-08-12T14:09:30;7.40;;;5.00;;
71671;SDS011;67659;45.554;11.812;2023-08-12T14:11:57;8.93;;;5.70;;
71671;SDS011;67659;45.554;11.812;2023-08-12T15:09:43;7.28;;;5.10;;
71671;SDS011;67659;45.554;11.812;2023-08-12T15:12:09;8.48;;;5.03;;
71671;SDS011;67659;45.554;11.812;2023-08-12T15:14:39;7.97;;;5.40;;
71671;SDS011;67659;45.554;11.812;2023-08-12T15:17:04;8.83;;;5.47;;
71671;SDS011;67659;45.554;11.812;2023-08-12T15:19:31;8.55;;;5.28;;
71671;SDS011;67659;45.554;11.812;2023-08-12T15:21:57;7.43;;;5.20;;
71671;SDS011;67659;45.554;11.812;2023-08-12T15:24:23;10.88;;;5.43;;
71671;SDS011;67659;45.554;11.812;2023-08-12T15:26:49;7.20;;;4.80;;
71671;SDS011;67659;45.554;11.812;2023-08-12T15:29:15;6.88;;;4.82;;
71671;SDS011;67659;45.554;11.812;2023-08-12T15:31:50;7.93;;;5.55;;
71671;SDS011;67659;45.554;11.812;2023-08-12T15:34:18;7.10;;;5.47;;
71671;SDS011;67659;45.554;11.812;2023-08-12T15:36:49;9.00;;;5.47;;
71671;SDS011;67659;45.554;11.812;2023-08-12T15:39:36;7.60;;;5.18;;